sensor_id;sensor_type;location;lat;lon;timestamp;pressure;altitude;pressure_sealevel;temperature
16956;BMP180;8594;52.052;8.354;2022-12-18T00:02:26;101823.00;;;-2.30
16956;BMP180;8594;52.052;8.354;2022-12-18T00:04:53;101828.00;;;-2.30
16956;BMP180;8594;52.052;8.354;2022-12-18T00:07:21;101820.00;;;-2.50
16956;BMP180;8594;52.052;8.354;2022-12-18T00:09:48;101819.00;;;-2.60
16956;BMP180;8594;52.052;8.354;2022-12-18T00:12:15;101816.00;;;-2.60
16956;BMP180;8594;52.052;8.354;2022-12-18T00:14:42;101817.00;;;-2.70
16956;BMP180;8594;52.052;8.354;2022-12-18T00:17:09;101823.00;;;-2.80
16956;BMP180;8594;52.052;8.354;2022-12-18T00:19:36;101822.00;;;-2.70
16956;BMP180;8594;52.052;8.354;2022-12-18T00:22:03;101828.00;;;-2.80
16956;BMP180;8594;52.052;8.354;2022-12-18T00:24:32;101832.00;;;-2.80
16956;BMP180;8594;52.052;8.354;2022-12-18T00:27:00;101834.00;;;-2.20
16956;BMP180;8594;52.052;8.354;2022-12-18T00:29:27;101829.00;;;-3.00
16956;BMP180;8594;52.052;8.354;2022-12-18T00:31:54;101836.00;;;-2.80
16956;BMP180;8594;52.052;8.354;2022-12-18T00:34:20;101832.00;;;-2.90
16956;BMP180;8594;52.052;8.354;2022-12-18T00:36:48;101840.00;;;-3.50
16956;BMP180;8594;52.052;8.354;2022-12-18T00:39:15;101836.00;;;-2.60
16956;BMP180;8594;52.052;8.354;2022-12-18T00:41:44;101834.00;;;-2.30
16956;BMP180;8594;52.052;8.354;2022-12-18T00:44:39;101831.00;;;-2.30
16956;BMP180;8594;52.052;8.354;2022-12-18T00:47:06;101836.00;;;-2.70
16956;BMP180;8594;52.052;8.354;2022-12-18T00:49:33;101831.00;;;-2.60
16956;BMP180;8594;52.052;8.354;2022-12-18T00:52:00;101825.00;;;-2.80
16956;BMP180;8594;52.052;8.354;2022-12-18T00:54:27;101827.00;;;-3.00
16956;BMP180;8594;52.052;8.354;2022-12-18T00:56:56;101822.00;;;-2.90
16956;BMP180;8594;52.052;8.354;2022-12-18T00:59:23;101821.00;;;-3.00
16956;BMP180;8594;52.052;8.354;2022-12-18T01:01:50;101822.00;;;-3.40
16956;BMP180;8594;52.052;8.354;2022-12-18T01:04:17;101826.00;;;-3.10
16956;BMP180;8594;52.052;8.354;2022-12-18T01:06:44;101827.00;;;-2.90
16956;BMP180;8594;52.052;8.354;2022-12-18T01:09:11;101818.00;;;-2.90
16956;BMP180;8594;52.052;8.354;2022-12-18T01:11:38;101818.00;;;-3.00
16956;BMP180;8594;52.052;8.354;2022-12-18T01:14:06;101818.00;;;-3.00
16956;BMP180;8594;52.052;8.354;2022-12-18T01:16:33;101822.00;;;-3.10
16956;BMP180;8594;52.052;8.354;2022-12-18T01:19:00;101821.00;;;-3.10
16956;BMP180;8594;52.052;8.354;2022-12-18T01:21:27;101829.00;;;-2.90
16956;BMP180;8594;52.052;8.354;2022-12-18T01:23:56;101829.00;;;-3.00
16956;BMP180;8594;52.052;8.354;2022-12-18T01:26:25;101821.00;;;-3.00
16956;BMP180;8594;52.052;8.354;2022-12-18T01:28:56;101830.00;;;-3.10
16956;BMP180;8594;52.052;8.354;2022-12-18T01:31:27;101828.00;;;-3.10
16956;BMP180;8594;52.052;8.354;2022-12-18T01:33:55;101834.00;;;-3.20
16956;BMP180;8594;52.052;8.354;2022-12-18T01:36:24;101833.00;;;-3.40
16956;BMP180;8594;52.052;8.354;2022-12-18T01:38:53;101832.00;;;-3.40
16956;BMP180;8594;52.052;8.354;2022-12-18T01:41:23;101831.00;;;-3.40
16956;BMP180;8594;52.052;8.354;2022-12-18T01:43:54;101834.00;;;-3.50
16956;BMP180;8594;52.052;8.354;2022-12-18T01:46:26;101830.00;;;-3.30
16956;BMP180;8594;52.052;8.354;2022-12-18T01:48:57;101832.00;;;-3.50
16956;BMP180;8594;52.052;8.354;2022-12-18T01:51:27;101834.00;;;-3.40
16956;BMP180;8594;52.052;8.354;2022-12-18T01:53:57;101827.00;;;-3.40
16956;BMP180;8594;52.052;8.354;2022-12-18T01:56:26;101837.00;;;-3.60
16956;BMP180;8594;52.052;8.354;2022-12-18T01:58:59;101839.00;;;-3.10
16956;BMP180;8594;52.052;8.354;2022-12-18T02:01:30;101841.00;;;-2.90
16956;BMP180;8594;52.052;8.354;2022-12-18T02:04:20;101850.00;;;-3.20
16956;BMP180;8594;52.052;8.354;2022-12-18T02:06:56;101840.00;;;-3.10
16956;BMP180;8594;52.052;8.354;2022-12-18T02:09:31;101839.00;;;-3.60
16956;BMP180;8594;52.052;8.354;2022-12-18T02:12:07;101838.00;;;-3.40
16956;BMP180;8594;52.052;8.354;2022-12-18T02:14:44;101841.00;;;-3.60
16956;BMP180;8594;52.052;8.354;2022-12-18T02:17:18;101832.00;;;-3.40
16956;BMP180;8594;52.052;8.354;2022-12-18T02:20:01;101834.00;;;-3.20
16956;BMP180;8594;52.052;8.354;2022-12-18T02:22:43;101837.00;;;-3.60
16956;BMP180;8594;52.052;8.354;2022-12-18T02:25:36;101830.00;;;-3.60
16956;BMP180;8594;52.052;8.354;2022-12-18T02:28:12;101829.00;;;-3.20
16956;BMP180;8594;52.052;8.354;2022-12-18T02:30:42;101823.00;;;-3.20
16956;BMP180;8594;52.052;8.354;2022-12-18T02:33:13;101816.00;;;-3.80
16956;BMP180;8594;52.052;8.354;2022-12-18T02:35:41;101808.00;;;-3.40
16956;BMP180;8594;52.052;8.354;2022-12-18T02:38:09;101811.00;;;-3.30
16956;BMP180;8594;52.052;8.354;2022-12-18T02:40:39;101802.00;;;-3.30
16956;BMP180;8594;52.052;8.354;2022-12-18T02:43:10;101807.00;;;-3.40
16956;BMP180;8594;52.052;8.354;2022-12-18T02:45:46;101804.00;;;-3.40
16956;BMP180;8594;52.052;8.354;2022-12-18T02:48:14;101808.00;;;-3.40
16956;BMP180;8594;52.052;8.354;2022-12-18T02:50:51;101810.00;;;-3.40
16956;BMP180;8594;52.052;8.354;2022-12-18T02:53:28;101823.00;;;-3.30
16956;BMP180;8594;52.052;8.354;2022-12-18T02:56:07;101820.00;;;-3.40
16956;BMP180;8594;52.052;8.354;2022-12-18T02:58:47;101815.00;;;-3.30
16956;BMP180;8594;52.052;8.354;2022-12-18T03:01:21;101817.00;;;-3.30
16956;BMP180;8594;52.052;8.354;2022-12-18T03:03:55;101831.00;;;-3.40
16956;BMP180;8594;52.052;8.354;2022-12-18T03:06:29;101827.00;;;-3.60
16956;BMP180;8594;52.052;8.354;2022-12-18T03:09:01;101823.00;;;-3.60
16956;BMP180;8594;52.052;8.354;2022-12-18T03:11:34;101819.00;;;-3.10
16956;BMP180;8594;52.052;8.354;2022-12-18T03:14:23;101820.00;;;-3.10
16956;BMP180;8594;52.052;8.354;2022-12-18T03:16:54;101815.00;;;-3.20
16956;BMP180;8594;52.052;8.354;2022-12-18T03:19:28;101823.00;;;-3.10
16956;BMP180;8594;52.052;8.354;2022-12-18T03:21:58;101823.00;;;-3.40
16956;BMP180;8594;52.052;8.354;2022-12-18T03:24:29;101823.00;;;-3.40
16956;BMP180;8594;52.052;8.354;2022-12-18T03:27:02;101819.00;;;-3.30
16956;BMP180;8594;52.052;8.354;2022-12-18T03:29:36;101826.00;;;-3.50
16956;BMP180;8594;52.052;8.354;2022-12-18T03:32:10;101831.00;;;-3.50
16956;BMP180;8594;52.052;8.354;2022-12-18T03:34:41;101825.00;;;-3.20
16956;BMP180;8594;52.052;8.354;2022-12-18T03:37:10;101823.00;;;-3.00
16956;BMP180;8594;52.052;8.354;2022-12-18T03:39:37;101823.00;;;-3.40
16956;BMP180;8594;52.052;8.354;2022-12-18T03:42:11;101819.00;;;-3.40
16956;BMP180;8594;52.052;8.354;2022-12-18T03:44:50;101823.00;;;-3.40
16956;BMP180;8594;52.052;8.354;2022-12-18T03:47:27;101823.00;;;-3.50
16956;BMP180;8594;52.052;8.354;2022-12-18T03:50:03;101824.00;;;-3.70
16956;BMP180;8594;52.052;8.354;2022-12-18T03:52:38;101812.00;;;-4.00
16956;BMP180;8594;52.052;8.354;2022-12-18T03:55:09;101815.00;;;-3.30
16956;BMP180;8594;52.052;8.354;2022-12-18T03:57:38;101808.00;;;-3.20
16956;BMP180;8594;52.052;8.354;2022-12-18T04:00:12;101809.00;;;-3.10
16956;BMP180;8594;52.052;8.354;2022-12-18T04:02:45;101804.00;;;-3.40
16956;BMP180;8594;52.052;8.354;2022-12-18T04:05:15;101802.00;;;-3.40
16956;BMP180;8594;52.052;8.354;2022-12-18T04:07:44;101798.00;;;-3.30
16956;BMP180;8594;52.052;8.354;2022-12-18T04:10:13;101797.00;;;-3.40
16956;BMP180;8594;52.052;8.354;2022-12-18T04:12:41;101812.00;;;-3.40
16956;BMP180;8594;52.052;8.354;2022-12-18T04:15:11;101814.00;;;-3.50
16956;BMP180;8594;52.052;8.354;2022-12-18T04:17:38;101807.00;;;-3.60
16956;BMP180;8594;52.052;8.354;2022-12-18T04:20:09;101823.00;;;-3.30
16956;BMP180;8594;52.052;8.354;2022-12-18T04:22:37;101825.00;;;-3.30
16956;BMP180;8594;52.052;8.354;2022-12-18T04:25:04;101822.00;;;-3.40
16956;BMP180;8594;52.052;8.354;2022-12-18T04:27:31;101823.00;;;-3.40
16956;BMP180;8594;52.052;8.354;2022-12-18T04:29:58;101820.00;;;-3.60
16956;BMP180;8594;52.052;8.354;2022-12-18T04:32:26;101823.00;;;-3.40
16956;BMP180;8594;52.052;8.354;2022-12-18T04:34:53;101830.00;;;-3.40
16956;BMP180;8594;52.052;8.354;2022-12-18T04:37:20;101821.00;;;-3.60
16956;BMP180;8594;52.052;8.354;2022-12-18T04:39:47;101827.00;;;-3.70
16956;BMP180;8594;52.052;8.354;2022-12-18T04:42:14;101824.00;;;-3.20
16956;BMP180;8594;52.052;8.354;2022-12-18T04:44:41;101839.00;;;-3.00
16956;BMP180;8594;52.052;8.354;2022-12-18T04:47:08;101834.00;;;-2.80
16956;BMP180;8594;52.052;8.354;2022-12-18T04:49:36;101837.00;;;-2.70
16956;BMP180;8594;52.052;8.354;2022-12-18T04:52:03;101843.00;;;-2.70
16956;BMP180;8594;52.052;8.354;2022-12-18T04:54:30;101840.00;;;-3.00
16956;BMP180;8594;52.052;8.354;2022-12-18T04:56:57;101831.00;;;-2.90
16956;BMP180;8594;52.052;8.354;2022-12-18T04:59:24;101833.00;;;-2.50
16956;BMP180;8594;52.052;8.354;2022-12-18T05:01:51;101825.00;;;-2.20
16956;BMP180;8594;52.052;8.354;2022-12-18T05:04:18;101830.00;;;-2.30
16956;BMP180;8594;52.052;8.354;2022-12-18T05:06:47;101816.00;;;-2.10
16956;BMP180;8594;52.052;8.354;2022-12-18T05:09:14;101814.00;;;-2.10
16956;BMP180;8594;52.052;8.354;2022-12-18T05:11:41;101808.00;;;-2.10
16956;BMP180;8594;52.052;8.354;2022-12-18T05:14:08;101808.00;;;-2.00
16956;BMP180;8594;52.052;8.354;2022-12-18T05:16:35;101802.00;;;-2.00
16956;BMP180;8594;52.052;8.354;2022-12-18T05:19:02;101803.00;;;-2.40
16956;BMP180;8594;52.052;8.354;2022-12-18T05:21:29;101813.00;;;-2.20
16956;BMP180;8594;52.052;8.354;2022-12-18T05:23:57;101808.00;;;-2.60
16956;BMP180;8594;52.052;8.354;2022-12-18T05:26:24;101802.00;;;-2.20
16956;BMP180;8594;52.052;8.354;2022-12-18T05:28:51;101812.00;;;-2.00
16956;BMP180;8594;52.052;8.354;2022-12-18T05:31:18;101820.00;;;-2.00
16956;BMP180;8594;52.052;8.354;2022-12-18T05:33:44;101814.00;;;-1.90
16956;BMP180;8594;52.052;8.354;2022-12-18T05:36:11;101819.00;;;-1.90
16956;BMP180;8594;52.052;8.354;2022-12-18T05:38:40;101820.00;;;-1.60
16956;BMP180;8594;52.052;8.354;2022-12-18T05:41:09;101810.00;;;-1.60
16956;BMP180;8594;52.052;8.354;2022-12-18T05:43:38;101815.00;;;-1.60
16956;BMP180;8594;52.052;8.354;2022-12-18T05:46:07;101808.00;;;-1.60
16956;BMP180;8594;52.052;8.354;2022-12-18T05:48:35;101801.00;;;-1.80
16956;BMP180;8594;52.052;8.354;2022-12-18T05:51:08;101806.00;;;-1.70
16956;BMP180;8594;52.052;8.354;2022-12-18T05:53:37;101803.00;;;-1.70
16956;BMP180;8594;52.052;8.354;2022-12-18T05:56:12;101806.00;;;-1.70
16956;BMP180;8594;52.052;8.354;2022-12-18T05:58:40;101795.00;;;-1.90
16956;BMP180;8594;52.052;8.354;2022-12-18T06:01:11;101804.00;;;-1.80
16956;BMP180;8594;52.052;8.354;2022-12-18T06:03:38;101812.00;;;-1.60
16956;BMP180;8594;52.052;8.354;2022-12-18T06:06:13;101814.00;;;-1.70
16956;BMP180;8594;52.052;8.354;2022-12-18T06:08:41;101814.00;;;-1.80
16956;BMP180;8594;52.052;8.354;2022-12-18T06:11:09;101815.00;;;-1.70
16956;BMP180;8594;52.052;8.354;2022-12-18T06:13:37;101830.00;;;-2.00
16956;BMP180;8594;52.052;8.354;2022-12-18T06:16:05;101811.00;;;-1.80
16956;BMP180;8594;52.052;8.354;2022-12-18T06:18:32;101828.00;;;-1.70
16956;BMP180;8594;52.052;8.354;2022-12-18T06:21:00;101823.00;;;-1.70
16956;BMP180;8594;52.052;8.354;2022-12-18T06:23:27;101832.00;;;-1.90
16956;BMP180;8594;52.052;8.354;2022-12-18T06:25:54;101830.00;;;-2.00
16956;BMP180;8594;52.052;8.354;2022-12-18T06:28:23;101835.00;;;-1.90
16956;BMP180;8594;52.052;8.354;2022-12-18T06:30:50;101831.00;;;-2.10
16956;BMP180;8594;52.052;8.354;2022-12-18T06:33:17;101835.00;;;-2.60
16956;BMP180;8594;52.052;8.354;2022-12-18T06:35:44;101837.00;;;-2.40
16956;BMP180;8594;52.052;8.354;2022-12-18T06:38:11;101843.00;;;-2.60
16956;BMP180;8594;52.052;8.354;2022-12-18T06:40:38;101840.00;;;-2.40
16956;BMP180;8594;52.052;8.354;2022-12-18T06:43:06;101834.00;;;-2.40
16956;BMP180;8594;52.052;8.354;2022-12-18T06:45:34;101836.00;;;-2.30
16956;BMP180;8594;52.052;8.354;2022-12-18T06:48:01;101832.00;;;-2.30
16956;BMP180;8594;52.052;8.354;2022-12-18T06:50:28;101837.00;;;-2.50
16956;BMP180;8594;52.052;8.354;2022-12-18T06:52:55;101844.00;;;-2.50
16956;BMP180;8594;52.052;8.354;2022-12-18T06:55:22;101851.00;;;-2.50
16956;BMP180;8594;52.052;8.354;2022-12-18T06:57:49;101838.00;;;-2.40
16956;BMP180;8594;52.052;8.354;2022-12-18T07:00:17;101844.00;;;-2.30
16956;BMP180;8594;52.052;8.354;2022-12-18T07:02:46;101845.00;;;-2.80
16956;BMP180;8594;52.052;8.354;2022-12-18T07:05:13;101855.00;;;-2.00
16956;BMP180;8594;52.052;8.354;2022-12-18T07:07:40;101856.00;;;-1.80
16956;BMP180;8594;52.052;8.354;2022-12-18T07:10:08;101860.00;;;-1.60
16956;BMP180;8594;52.052;8.354;2022-12-18T07:12:38;101854.00;;;-1.60
16956;BMP180;8594;52.052;8.354;2022-12-18T07:15:07;101846.00;;;-1.70
16956;BMP180;8594;52.052;8.354;2022-12-18T07:17:34;101847.00;;;-1.50
16956;BMP180;8594;52.052;8.354;2022-12-18T07:20:03;101850.00;;;-1.30
16956;BMP180;8594;52.052;8.354;2022-12-18T07:22:30;101838.00;;;-1.10
16956;BMP180;8594;52.052;8.354;2022-12-18T07:24:57;101832.00;;;-1.00
16956;BMP180;8594;52.052;8.354;2022-12-18T07:27:24;101839.00;;;-1.00
16956;BMP180;8594;52.052;8.354;2022-12-18T07:29:51;101838.00;;;-0.80
16956;BMP180;8594;52.052;8.354;2022-12-18T07:32:18;101846.00;;;-0.60
16956;BMP180;8594;52.052;8.354;2022-12-18T07:34:45;101844.00;;;-0.70
16956;BMP180;8594;52.052;8.354;2022-12-18T07:37:14;101850.00;;;-0.60
16956;BMP180;8594;52.052;8.354;2022-12-18T07:39:41;101850.00;;;-0.70
16956;BMP180;8594;52.052;8.354;2022-12-18T07:42:08;101856.00;;;-0.40
16956;BMP180;8594;52.052;8.354;2022-12-18T07:44:52;101860.00;;;-0.20
16956;BMP180;8594;52.052;8.354;2022-12-18T07:47:19;101862.00;;;-0.40
16956;BMP180;8594;52.052;8.354;2022-12-18T07:49:46;101856.00;;;-0.30
16956;BMP180;8594;52.052;8.354;2022-12-18T07:52:14;101862.00;;;-0.10
16956;BMP180;8594;52.052;8.354;2022-12-18T07:54:41;101859.00;;;-0.10
16956;BMP180;8594;52.052;8.354;2022-12-18T07:57:08;101862.00;;;-0.10
16956;BMP180;8594;52.052;8.354;2022-12-18T07:59:35;101847.00;;;-0.10
16956;BMP180;8594;52.052;8.354;2022-12-18T08:02:03;101845.00;;;-0.20
16956;BMP180;8594;52.052;8.354;2022-12-18T08:04:30;101837.00;;;-0.30
16956;BMP180;8594;52.052;8.354;2022-12-18T08:06:57;101842.00;;;0.00
16956;BMP180;8594;52.052;8.354;2022-12-18T08:09:25;101836.00;;;0.10
16956;BMP180;8594;52.052;8.354;2022-12-18T08:11:52;101838.00;;;0.20
16956;BMP180;8594;52.052;8.354;2022-12-18T08:14:19;101845.00;;;0.10
16956;BMP180;8594;52.052;8.354;2022-12-18T08:16:46;101823.00;;;-0.30
16956;BMP180;8594;52.052;8.354;2022-12-18T08:19:13;101831.00;;;0.00
16956;BMP180;8594;52.052;8.354;2022-12-18T08:21:40;101834.00;;;-0.20
16956;BMP180;8594;52.052;8.354;2022-12-18T08:24:09;101829.00;;;-0.10
16956;BMP180;8594;52.052;8.354;2022-12-18T08:26:38;101828.00;;;-0.30
16956;BMP180;8594;52.052;8.354;2022-12-18T08:29:05;101813.00;;;0.10
16956;BMP180;8594;52.052;8.354;2022-12-18T08:31:32;101819.00;;;-0.10
16956;BMP180;8594;52.052;8.354;2022-12-18T08:33:59;101813.00;;;0.30
16956;BMP180;8594;52.052;8.354;2022-12-18T08:36:26;101818.00;;;0.50
16956;BMP180;8594;52.052;8.354;2022-12-18T08:38:53;101812.00;;;0.50
16956;BMP180;8594;52.052;8.354;2022-12-18T08:41:21;101809.00;;;0.90
16956;BMP180;8594;52.052;8.354;2022-12-18T08:43:49;101809.00;;;1.30
16956;BMP180;8594;52.052;8.354;2022-12-18T08:46:37;101806.00;;;1.70
16956;BMP180;8594;52.052;8.354;2022-12-18T08:49:07;101817.00;;;2.30
16956;BMP180;8594;52.052;8.354;2022-12-18T08:51:35;101820.00;;;1.90
16956;BMP180;8594;52.052;8.354;2022-12-18T08:54:03;101813.00;;;2.40
16956;BMP180;8594;52.052;8.354;2022-12-18T08:56:31;101814.00;;;2.90
16956;BMP180;8594;52.052;8.354;2022-12-18T08:59:00;101823.00;;;3.60
16956;BMP180;8594;52.052;8.354;2022-12-18T09:01:27;101816.00;;;3.70
16956;BMP180;8594;52.052;8.354;2022-12-18T09:03:53;101808.00;;;3.00
16956;BMP180;8594;52.052;8.354;2022-12-18T09:06:22;101809.00;;;2.70
16956;BMP180;8594;52.052;8.354;2022-12-18T09:08:49;101805.00;;;2.70
16956;BMP180;8594;52.052;8.354;2022-12-18T09:11:21;101812.00;;;2.90
16956;BMP180;8594;52.052;8.354;2022-12-18T09:13:49;101822.00;;;2.00
16956;BMP180;8594;52.052;8.354;2022-12-18T09:16:19;101817.00;;;1.90
16956;BMP180;8594;52.052;8.354;2022-12-18T09:18:46;101814.00;;;1.70
16956;BMP180;8594;52.052;8.354;2022-12-18T09:21:17;101821.00;;;1.40
16956;BMP180;8594;52.052;8.354;2022-12-18T09:23:48;101820.00;;;1.80
16956;BMP180;8594;52.052;8.354;2022-12-18T09:26:16;101829.00;;;1.50
16956;BMP180;8594;52.052;8.354;2022-12-18T09:28:43;101816.00;;;1.60
16956;BMP180;8594;52.052;8.354;2022-12-18T09:31:13;101823.00;;;2.10
16956;BMP180;8594;52.052;8.354;2022-12-18T09:33:41;101807.00;;;1.40
16956;BMP180;8594;52.052;8.354;2022-12-18T09:36:13;101805.00;;;1.30
16956;BMP180;8594;52.052;8.354;2022-12-18T09:38:40;101812.00;;;1.40
16956;BMP180;8594;52.052;8.354;2022-12-18T09:41:28;101810.00;;;1.00
16956;BMP180;8594;52.052;8.354;2022-12-18T09:44:05;101822.00;;;0.90
16956;BMP180;8594;52.052;8.354;2022-12-18T09:46:43;101806.00;;;1.30
16956;BMP180;8594;52.052;8.354;2022-12-18T09:49:16;101806.00;;;1.20
16956;BMP180;8594;52.052;8.354;2022-12-18T09:51:49;101805.00;;;2.20
16956;BMP180;8594;52.052;8.354;2022-12-18T09:54:23;101808.00;;;2.50
16956;BMP180;8594;52.052;8.354;2022-12-18T09:56:52;101816.00;;;2.20
16956;BMP180;8594;52.052;8.354;2022-12-18T09:59:24;101816.00;;;2.10
16956;BMP180;8594;52.052;8.354;2022-12-18T10:01:52;101813.00;;;2.30
16956;BMP180;8594;52.052;8.354;2022-12-18T10:04:20;101816.00;;;2.70
16956;BMP180;8594;52.052;8.354;2022-12-18T10:06:56;101814.00;;;2.80
16956;BMP180;8594;52.052;8.354;2022-12-18T10:09:34;101802.00;;;2.80
16956;BMP180;8594;52.052;8.354;2022-12-18T10:12:12;101802.00;;;3.10
16956;BMP180;8594;52.052;8.354;2022-12-18T10:14:51;101805.00;;;3.00
16956;BMP180;8594;52.052;8.354;2022-12-18T10:17:33;101786.00;;;3.00
16956;BMP180;8594;52.052;8.354;2022-12-18T10:20:13;101778.00;;;3.30
16956;BMP180;8594;52.052;8.354;2022-12-18T10:22:53;101769.00;;;3.30
16956;BMP180;8594;52.052;8.354;2022-12-18T10:25:28;101753.00;;;3.10
16956;BMP180;8594;52.052;8.354;2022-12-18T10:28:08;101754.00;;;3.20
16956;BMP180;8594;52.052;8.354;2022-12-18T10:30:38;101747.00;;;3.40
16956;BMP180;8594;52.052;8.354;2022-12-18T10:33:08;101747.00;;;3.20
16956;BMP180;8594;52.052;8.354;2022-12-18T10:35:41;101735.00;;;3.50
16956;BMP180;8594;52.052;8.354;2022-12-18T10:38:23;101738.00;;;3.30
16956;BMP180;8594;52.052;8.354;2022-12-18T10:40:54;101726.00;;;3.10
16956;BMP180;8594;52.052;8.354;2022-12-18T10:43:25;101730.00;;;3.60
16956;BMP180;8594;52.052;8.354;2022-12-18T10:46:14;101748.00;;;3.50
16956;BMP180;8594;52.052;8.354;2022-12-18T10:48:55;101734.00;;;3.50
16956;BMP180;8594;52.052;8.354;2022-12-18T10:51:27;101752.00;;;2.80
16956;BMP180;8594;52.052;8.354;2022-12-18T10:53:59;101737.00;;;3.50
16956;BMP180;8594;52.052;8.354;2022-12-18T10:56:31;101727.00;;;3.70
16956;BMP180;8594;52.052;8.354;2022-12-18T10:59:02;101729.00;;;3.30
16956;BMP180;8594;52.052;8.354;2022-12-18T11:01:47;101711.00;;;3.50
16956;BMP180;8594;52.052;8.354;2022-12-18T11:04:19;101697.00;;;3.20
16956;BMP180;8594;52.052;8.354;2022-12-18T11:06:59;101702.00;;;3.20
16956;BMP180;8594;52.052;8.354;2022-12-18T11:09:29;101714.00;;;3.40
16956;BMP180;8594;52.052;8.354;2022-12-18T11:12:01;101706.00;;;2.90
16956;BMP180;8594;52.052;8.354;2022-12-18T11:14:31;101701.00;;;3.10
16956;BMP180;8594;52.052;8.354;2022-12-18T11:17:00;101681.00;;;3.00
16956;BMP180;8594;52.052;8.354;2022-12-18T11:19:34;101672.00;;;3.00
16956;BMP180;8594;52.052;8.354;2022-12-18T11:22:19;101677.00;;;3.10
16956;BMP180;8594;52.052;8.354;2022-12-18T11:24:56;101685.00;;;3.00
16956;BMP180;8594;52.052;8.354;2022-12-18T11:27:23;101680.00;;;2.70
16956;BMP180;8594;52.052;8.354;2022-12-18T11:29:51;101681.00;;;2.90
16956;BMP180;8594;52.052;8.354;2022-12-18T11:32:32;101672.00;;;3.10
16956;BMP180;8594;52.052;8.354;2022-12-18T11:35:15;101682.00;;;2.70
16956;BMP180;8594;52.052;8.354;2022-12-18T11:37:54;101670.00;;;3.00
16956;BMP180;8594;52.052;8.354;2022-12-18T11:40:33;101663.00;;;3.40
16956;BMP180;8594;52.052;8.354;2022-12-18T11:43:10;101661.00;;;3.30
16956;BMP180;8594;52.052;8.354;2022-12-18T11:45:47;101660.00;;;3.00
16956;BMP180;8594;52.052;8.354;2022-12-18T11:48:22;101662.00;;;2.90
16956;BMP180;8594;52.052;8.354;2022-12-18T11:50:53;101660.00;;;2.90
16956;BMP180;8594;52.052;8.354;2022-12-18T11:53:24;101663.00;;;3.20
16956;BMP180;8594;52.052;8.354;2022-12-18T11:56:05;101652.00;;;3.20
16956;BMP180;8594;52.052;8.354;2022-12-18T11:58:47;101658.00;;;3.00
16956;BMP180;8594;52.052;8.354;2022-12-18T12:01:35;101639.00;;;3.00
16956;BMP180;8594;52.052;8.354;2022-12-18T12:04:35;101620.00;;;2.90
16956;BMP180;8594;52.052;8.354;2022-12-18T12:07:29;101616.00;;;2.90
16956;BMP180;8594;52.052;8.354;2022-12-18T12:10:13;101614.00;;;3.00
16956;BMP180;8594;52.052;8.354;2022-12-18T12:13:03;101607.00;;;3.00
16956;BMP180;8594;52.052;8.354;2022-12-18T12:15:46;101605.00;;;3.00
16956;BMP180;8594;52.052;8.354;2022-12-18T12:18:29;101626.00;;;3.00
16956;BMP180;8594;52.052;8.354;2022-12-18T12:21:07;101612.00;;;3.10
16956;BMP180;8594;52.052;8.354;2022-12-18T12:23:50;101595.00;;;3.00
16956;BMP180;8594;52.052;8.354;2022-12-18T12:26:31;101605.00;;;3.00
16956;BMP180;8594;52.052;8.354;2022-12-18T12:29:28;101599.00;;;3.20
16956;BMP180;8594;52.052;8.354;2022-12-18T12:32:17;101601.00;;;3.30
16956;BMP180;8594;52.052;8.354;2022-12-18T12:34:58;101603.00;;;3.00
16956;BMP180;8594;52.052;8.354;2022-12-18T12:37:45;101603.00;;;3.40
16956;BMP180;8594;52.052;8.354;2022-12-18T12:40:19;101607.00;;;3.50
16956;BMP180;8594;52.052;8.354;2022-12-18T12:42:55;101615.00;;;3.50
16956;BMP180;8594;52.052;8.354;2022-12-18T12:45:48;101607.00;;;3.20
16956;BMP180;8594;52.052;8.354;2022-12-18T12:48:36;101619.00;;;3.60
16956;BMP180;8594;52.052;8.354;2022-12-18T12:51:16;101616.00;;;3.60
16956;BMP180;8594;52.052;8.354;2022-12-18T12:53:45;101612.00;;;3.40
16956;BMP180;8594;52.052;8.354;2022-12-18T12:56:15;101604.00;;;3.10
16956;BMP180;8594;52.052;8.354;2022-12-18T12:58:58;101590.00;;;3.30
16956;BMP180;8594;52.052;8.354;2022-12-18T13:01:36;101581.00;;;3.30
16956;BMP180;8594;52.052;8.354;2022-12-18T13:04:20;101574.00;;;3.30
16956;BMP180;8594;52.052;8.354;2022-12-18T13:06:57;101571.00;;;3.00
16956;BMP180;8594;52.052;8.354;2022-12-18T13:09:31;101556.00;;;2.90
16956;BMP180;8594;52.052;8.354;2022-12-18T13:12:04;101555.00;;;3.20
16956;BMP180;8594;52.052;8.354;2022-12-18T13:14:50;101558.00;;;3.00
16956;BMP180;8594;52.052;8.354;2022-12-18T13:17:29;101545.00;;;3.20
16956;BMP180;8594;52.052;8.354;2022-12-18T13:20:12;101539.00;;;3.10
16956;BMP180;8594;52.052;8.354;2022-12-18T13:22:44;101543.00;;;3.10
16956;BMP180;8594;52.052;8.354;2022-12-18T13:25:34;101532.00;;;3.10
16956;BMP180;8594;52.052;8.354;2022-12-18T13:28:06;101529.00;;;3.00
16956;BMP180;8594;52.052;8.354;2022-12-18T13:31:01;101532.00;;;3.10
16956;BMP180;8594;52.052;8.354;2022-12-18T13:33:42;101525.00;;;3.10
16956;BMP180;8594;52.052;8.354;2022-12-18T13:39:24;101511.00;;;3.30
16956;BMP180;8594;52.052;8.354;2022-12-18T13:41:54;101520.00;;;3.10
16956;BMP180;8594;52.052;8.354;2022-12-18T13:45:01;101519.00;;;3.40
16956;BMP180;8594;52.052;8.354;2022-12-18T13:47:34;101528.00;;;3.50
16956;BMP180;8594;52.052;8.354;2022-12-18T13:50:10;101514.00;;;3.20
16956;BMP180;8594;52.052;8.354;2022-12-18T13:52:39;101521.00;;;3.30
16956;BMP180;8594;52.052;8.354;2022-12-18T13:55:16;101501.00;;;3.20
16956;BMP180;8594;52.052;8.354;2022-12-18T13:57:44;101505.00;;;3.20
16956;BMP180;8594;52.052;8.354;2022-12-18T14:00:25;101495.00;;;3.10
16956;BMP180;8594;52.052;8.354;2022-12-18T14:02:57;101506.00;;;3.40
16956;BMP180;8594;52.052;8.354;2022-12-18T14:05:26;101501.00;;;3.10
16956;BMP180;8594;52.052;8.354;2022-12-18T14:07:59;101505.00;;;3.30
16956;BMP180;8594;52.052;8.354;2022-12-18T14:10:27;101512.00;;;3.30
16956;BMP180;8594;52.052;8.354;2022-12-18T14:12:54;101516.00;;;3.40
16956;BMP180;8594;52.052;8.354;2022-12-18T14:15:31;101514.00;;;3.30
16956;BMP180;8594;52.052;8.354;2022-12-18T14:18:14;101513.00;;;3.50
16956;BMP180;8594;52.052;8.354;2022-12-18T14:20:44;101510.00;;;3.10
16956;BMP180;8594;52.052;8.354;2022-12-18T14:23:28;101509.00;;;3.50
16956;BMP180;8594;52.052;8.354;2022-12-18T14:25:56;101507.00;;;3.10
16956;BMP180;8594;52.052;8.354;2022-12-18T14:28:23;101497.00;;;3.30
16956;BMP180;8594;52.052;8.354;2022-12-18T14:30:52;101492.00;;;3.40
16956;BMP180;8594;52.052;8.354;2022-12-18T14:33:24;101498.00;;;2.90
16956;BMP180;8594;52.052;8.354;2022-12-18T14:35:59;101494.00;;;2.90
16956;BMP180;8594;52.052;8.354;2022-12-18T14:38:31;101480.00;;;3.00
16956;BMP180;8594;52.052;8.354;2022-12-18T14:41:00;101475.00;;;3.00
16956;BMP180;8594;52.052;8.354;2022-12-18T14:43:29;101488.00;;;3.00
16956;BMP180;8594;52.052;8.354;2022-12-18T14:45:58;101490.00;;;2.90